Time;durP1;ratioP1;P1;durP2;ratioP2;P2;SDS_P1;SDS_P2;PMS_P1;PMS_P2;Temp;Humidity;BMP_temperature;BMP_pressure;BME280_temperature;BME280_humidity;BME280_pressure;Samples;Min_cycle;Max_cycle;Signal;HPM_P1;HPM_P2
2022/10/28 00:00:46;;;;;;;13.68;8.95;;;;;;;;;;5074563;28;20033;-71
2022/10/28 00:03:12;;;;;;;13.50;9.43;;;;;;;;;;5074593;28;20046;-72
2022/10/28 00:05:38;;;;;;;13.85;8.70;;;;;;;;;;5074843;28;20027;-72
2022/10/28 00:08:04;;;;;;;13.10;8.77;;;;;;;;;;5074443;28;20351;-71
2022/10/28 00:10:30;;;;;;;11.68;9.93;;;;;;;;;;5074538;28;20028;-72
2022/10/28 00:12:56;;;;;;;10.32;8.95;;;;;;;;;;5074690;28;20027;-73
2022/10/28 00:15:22;;;;;;;12.27;9.38;;;;;;;;;;5074479;28;20021;-72
2022/10/28 00:17:49;;;;;;;15.52;9.27;;;;;;;;;;5074705;28;20100;-72
2022/10/28 00:20:15;;;;;;;13.98;9.48;;;;;;;;;;5074185;28;20036;-72
2022/10/28 00:22:41;;;;;;;11.52;9.18;;;;;;;;;;5074361;28;20095;-72
2022/10/28 00:25:08;;;;;;;13.98;9.38;;;;;;;;;;5074099;28;20051;-72
2022/10/28 00:27:34;;;;;;;14.20;9.50;;;;;;;;;;5074154;28;20017;-72
2022/10/28 00:30:01;;;;;;;11.45;9.00;;;;;;;;;;5074146;28;20031;-71
2022/10/28 00:32:30;;;;;;;13.95;9.05;;;;;;;;;;5073864;28;20351;-71
2022/10/28 00:34:56;;;;;;;11.93;8.88;;;;;;;;;;5074324;28;20489;-71
2022/10/28 00:37:22;;;;;;;10.60;9.48;;;;;;;;;;5073703;28;20032;-71
2022/10/28 00:39:49;;;;;;;16.05;9.48;;;;;;;;;;5074145;28;20040;-72
2022/10/28 00:42:17;;;;;;;14.02;9.52;;;;;;;;;;5073816;28;20072;-71
2022/10/28 00:44:57;;;;;;;12.32;8.70;;;;;;;;;;5055575;28;20032;-72
2022/10/28 00:47:38;;;;;;;12.45;9.13;;;;;;;;;;5072502;28;20051;-72
2022/10/28 00:50:07;;;;;;;12.70;8.63;;;;;;;;;;5061707;28;20028;-72
2022/10/28 00:52:33;;;;;;;12.25;8.57;;;;;;;;;;5073539;28;20027;-71
2022/10/28 00:55:01;;;;;;;10.30;8.18;;;;;;;;;;5073662;28;20066;-71
2022/10/28 00:57:30;;;;;;;13.55;9.18;;;;;;;;;;5073738;28;20012;-71
2022/10/28 00:59:57;;;;;;;10.60;7.90;;;;;;;;;;5073353;28;20047;-71
2022/10/28 01:02:24;;;;;;;11.23;8.57;;;;;;;;;;5073561;28;20021;-71
2022/10/28 01:04:50;;;;;;;11.32;8.00;;;;;;;;;;5073362;28;20035;-72
2022/10/28 01:07:16;;;;;;;10.88;8.23;;;;;;;;;;5073415;28;20025;-72
2022/10/28 01:09:42;;;;;;;13.90;9.02;;;;;;;;;;5073137;28;20025;-71
2022/10/28 01:12:12;;;;;;;12.35;8.60;;;;;;;;;;5073491;28;20025;-71
2022/10/28 01:14:47;;;;;;;10.50;8.40;;;;;;;;;;5073109;28;20074;-72
2022/10/28 01:17:16;;;;;;;14.27;8.43;;;;;;;;;;5073344;28;20032;-72
2022/10/28 01:19:48;;;;;;;11.57;8.38;;;;;;;;;;5073106;28;20028;-71
2022/10/28 01:22:20;;;;;;;9.98;8.35;;;;;;;;;;5059904;28;20104;-71
2022/10/28 01:24:55;;;;;;;10.18;7.85;;;;;;;;;;5073057;28;20021;-72
2022/10/28 01:27:40;;;;;;;12.82;8.20;;;;;;;;;;5060118;28;20095;-72
2022/10/28 01:30:10;;;;;;;10.32;7.55;;;;;;;;;;5073123;28;20374;-72
2022/10/28 01:32:50;;;;;;;12.90;9.87;;;;;;;;;;5073066;28;20020;-71
2022/10/28 01:35:23;;;;;;;14.27;9.90;;;;;;;;;;5072887;28;20482;-71
2022/10/28 01:38:08;;;;;;;11.60;8.38;;;;;;;;;;5072842;28;20028;-71
2022/10/28 01:40:34;;;;;;;11.95;9.23;;;;;;;;;;5072893;28;20495;-71
2022/10/28 01:43:08;;;;;;;11.55;8.68;;;;;;;;;;5072878;28;20028;-71
2022/10/28 01:45:42;;;;;;;11.98;8.43;;;;;;;;;;5072788;28;20540;-71
2022/10/28 01:48:09;;;;;;;14.38;8.95;;;;;;;;;;5072511;28;20045;-71
2022/10/28 01:50:39;;;;;;;11.68;8.35;;;;;;;;;;5072890;28;20513;-71
2022/10/28 01:53:10;;;;;;;11.55;8.07;;;;;;;;;;5072686;28;20031;-71
2022/10/28 01:55:38;;;;;;;15.27;8.68;;;;;;;;;;5072701;28;20033;-71
2022/10/28 01:58:05;;;;;;;9.35;8.10;;;;;;;;;;5072542;28;20086;-71
2022/10/28 02:00:32;;;;;;;9.02;7.93;;;;;;;;;;5072906;28;20402;-71
2022/10/28 02:02:58;;;;;;;11.90;8.70;;;;;;;;;;5072562;28;20470;-71
2022/10/28 02:05:44;;;;;;;11.55;8.35;;;;;;;;;;5072737;28;20413;-71
2022/10/28 02:08:10;;;;;;;9.98;7.45;;;;;;;;;;5072646;28;20100;-71
2022/10/28 02:10:42;;;;;;;11.98;8.07;;;;;;;;;;5072575;28;20051;-72
2022/10/28 02:13:12;;;;;;;10.02;8.20;;;;;;;;;;5072451;28;20494;-71
2022/10/28 02:16:01;;;;;;;9.80;7.82;;;;;;;;;;5072391;28;20032;-71
2022/10/28 02:18:34;;;;;;;12.73;8.20;;;;;;;;;;4991063;28;20034;-72
2022/10/28 02:21:14;;;;;;;10.90;8.02;;;;;;;;;;4991135;28;20101;-71
2022/10/28 02:23:40;;;;;;;10.30;7.97;;;;;;;;;;4991110;28;20508;-71
2022/10/28 02:26:09;;;;;;;11.02;8.60;;;;;;;;;;4990927;28;20064;-71
2022/10/28 02:28:40;;;;;;;11.57;8.75;;;;;;;;;;4990988;28;20015;-72
2022/10/28 02:31:12;;;;;;;9.88;7.03;;;;;;;;;;4991065;28;20092;-71
2022/10/28 02:33:39;;;;;;;10.60;7.95;;;;;;;;;;4990989;28;20493;-72
2022/10/28 02:36:13;;;;;;;11.77;8.35;;;;;;;;;;4990971;28;20500;-72
2022/10/28 02:38:44;;;;;;;9.85;7.88;;;;;;;;;;4990859;28;20046;-72
2022/10/28 02:41:15;;;;;;;12.00;8.80;;;;;;;;;;4990849;28;20049;-71
2022/10/28 02:43:42;;;;;;;13.75;8.75;;;;;;;;;;4990953;28;20373;-71
2022/10/28 02:46:09;;;;;;;12.18;8.73;;;;;;;;;;4990760;28;20513;-71
2022/10/28 02:48:39;;;;;;;10.27;8.85;;;;;;;;;;4990362;28;20043;-71
2022/10/28 02:51:25;;;;;;;10.32;7.70;;;;;;;;;;4990101;28;20030;-71
2022/10/28 02:53:54;;;;;;;11.70;8.38;;;;;;;;;;4977813;28;20045;-71
2022/10/28 02:56:21;;;;;;;11.65;8.93;;;;;;;;;;5062186;28;20501;-71
2022/10/28 02:58:47;;;;;;;12.80;8.85;;;;;;;;;;5072179;28;20027;-71
2022/10/28 03:01:13;;;;;;;9.57;7.60;;;;;;;;;;5071948;28;20478;-71
2022/10/28 03:03:40;;;;;;;11.32;8.23;;;;;;;;;;5072160;28;20025;-71
2022/10/28 03:06:06;;;;;;;12.38;8.43;;;;;;;;;;5072014;28;20100;-71
2022/10/28 03:08:32;;;;;;;9.90;7.75;;;;;;;;;;5072150;28;20024;-71
2022/10/28 03:10:58;;;;;;;10.25;8.90;;;;;;;;;;5074355;28;20498;-71
2022/10/28 03:13:24;;;;;;;12.13;8.50;;;;;;;;;;5075616;28;20027;-71
2022/10/28 03:15:50;;;;;;;9.65;8.35;;;;;;;;;;5075530;28;20024;-72
2022/10/28 03:18:16;;;;;;;10.70;7.95;;;;;;;;;;5075450;28;20544;-71
2022/10/28 03:20:42;;;;;;;9.38;8.10;;;;;;;;;;5075782;28;20036;-71
2022/10/28 03:23:08;;;;;;;12.30;7.68;;;;;;;;;;5075286;28;20055;-71
2022/10/28 03:25:34;;;;;;;10.68;8.00;;;;;;;;;;5057329;28;20023;-71
2022/10/28 03:28:00;;;;;;;9.40;8.15;;;;;;;;;;5075637;28;20025;-71
2022/10/28 03:30:26;;;;;;;9.80;8.80;;;;;;;;;;5075536;28;20016;-71
2022/10/28 03:32:52;;;;;;;11.57;8.75;;;;;;;;;;5075374;28;20020;-71
2022/10/28 03:35:19;;;;;;;9.82;8.05;;;;;;;;;;5075156;28;20390;-71
2022/10/28 03:37:45;;;;;;;11.02;9.02;;;;;;;;;;5074988;28;20066;-71
2022/10/28 03:40:11;;;;;;;16.77;11.45;;;;;;;;;;5075050;28;20024;-71
2022/10/28 03:42:37;;;;;;;11.80;8.93;;;;;;;;;;5057124;28;20475;-71
2022/10/28 03:45:03;;;;;;;12.63;9.13;;;;;;;;;;5075103;28;20082;-71
2022/10/28 03:47:29;;;;;;;12.05;9.55;;;;;;;;;;5074672;28;20055;-71
2022/10/28 03:49:55;;;;;;;15.98;10.27;;;;;;;;;;5075107;28;20078;-71
2022/10/28 03:52:22;;;;;;;13.10;9.98;;;;;;;;;;5074870;28;20032;-71
2022/10/28 03:54:48;;;;;;;14.05;9.73;;;;;;;;;;5056725;28;20070;-71
2022/10/28 03:57:14;;;;;;;12.02;8.30;;;;;;;;;;5074853;28;20021;-71
2022/10/28 03:59:40;;;;;;;10.40;7.63;;;;;;;;;;5074659;28;20028;-72
2022/10/28 04:02:06;;;;;;;9.25;7.88;;;;;;;;;;5075125;28;20025;-72
2022/10/28 04:04:32;;;;;;;10.65;8.35;;;;;;;;;;5074674;28;20024;-71
2022/10/28 04:06:58;;;;;;;10.75;8.07;;;;;;;;;;5075049;28;20111;-71
2022/10/28 04:09:24;;;;;;;12.18;8.85;;;;;;;;;;5074644;28;20055;-71
2022/10/28 04:11:50;;;;;;;15.18;8.70;;;;;;;;;;5074322;28;20107;-71
2022/10/28 04:14:16;;;;;;;11.13;8.43;;;;;;;;;;5074582;28;20021;-71
2022/10/28 04:16:42;;;;;;;15.38;9.90;;;;;;;;;;5074297;28;20482;-71
2022/10/28 04:19:08;;;;;;;11.15;8.52;;;;;;;;;;5074386;28;20495;-71
2022/10/28 04:21:34;;;;;;;12.07;8.50;;;;;;;;;;5074123;28;20391;-72
2022/10/28 04:24:00;;;;;;;10.52;8.60;;;;;;;;;;5074110;28;20377;-71
2022/10/28 04:26:26;;;;;;;13.75;9.80;;;;;;;;;;5056229;28;20555;-71
2022/10/28 04:28:52;;;;;;;12.18;8.68;;;;;;;;;;5074101;28;20424;-71
2022/10/28 04:31:18;;;;;;;14.30;9.48;;;;;;;;;;5074076;28;20035;-71
2022/10/28 04:33:44;;;;;;;12.05;8.80;;;;;;;;;;5073884;28;20021;-71
2022/10/28 04:36:10;;;;;;;13.65;9.60;;;;;;;;;;5074047;28;20032;-71
2022/10/28 04:38:36;;;;;;;13.93;9.98;;;;;;;;;;5073934;28;20103;-71
2022/10/28 04:41:02;;;;;;;14.02;9.20;;;;;;;;;;5073662;28;20032;-71
2022/10/28 04:43:28;;;;;;;11.68;9.68;;;;;;;;;;5073797;28;20017;-71
2022/10/28 04:45:55;;;;;;;15.10;10.73;;;;;;;;;;5073786;28;20374;-71
2022/10/28 04:48:21;;;;;;;15.40;10.20;;;;;;;;;;5073626;28;20041;-71
2022/10/28 04:50:47;;;;;;;16.88;10.38;;;;;;;;;;5073851;28;20070;-71
2022/10/28 04:53:13;;;;;;;13.73;9.65;;;;;;;;;;5073920;28;20051;-71
2022/10/28 04:55:39;;;;;;;14.52;9.82;;;;;;;;;;5073598;28;20024;-71
2022/10/28 04:58:05;;;;;;;12.27;9.55;;;;;;;;;;5055658;28;20016;-71
2022/10/28 05:00:31;;;;;;;14.45;11.82;;;;;;;;;;5073789;28;20037;-71
2022/10/28 05:03:00;;;;;;;10.90;9.77;;;;;;;;;;5073975;28;20074;-71
2022/10/28 05:05:26;;;;;;;16.42;10.82;;;;;;;;;;5073773;28;20078;-71
2022/10/28 05:07:52;;;;;;;24.00;11.13;;;;;;;;;;5073328;28;20024;-71
2022/10/28 05:10:18;;;;;;;15.07;11.63;;;;;;;;;;5073389;28;20024;-71
2022/10/28 05:12:45;;;;;;;18.52;11.52;;;;;;;;;;5055479;28;20056;-71
2022/10/28 05:15:12;;;;;;;16.60;11.43;;;;;;;;;;5073098;28;20034;-71
2022/10/28 05:17:39;;;;;;;17.92;11.60;;;;;;;;;;5073647;28;20032;-71
2022/10/28 05:20:05;;;;;;;18.77;11.20;;;;;;;;;;5073202;28;20021;-71
2022/10/28 05:22:32;;;;;;;16.25;11.57;;;;;;;;;;5073808;28;20028;-71
2022/10/28 05:24:58;;;;;;;20.50;11.18;;;;;;;;;;5072890;28;20032;-71
2022/10/28 05:27:24;;;;;;;20.42;12.85;;;;;;;;;;5073038;28;20035;-71
2022/10/28 05:29:50;;;;;;;23.20;12.18;;;;;;;;;;5073106;28;20028;-71
2022/10/28 05:32:16;;;;;;;14.90;11.57;;;;;;;;;;5072534;28;20154;-71
2022/10/28 05:34:42;;;;;;;24.35;13.27;;;;;;;;;;5072871;28;20493;-71
2022/10/28 05:37:08;;;;;;;15.30;11.95;;;;;;;;;;5072886;28;20075;-71
2022/10/28 05:39:39;;;;;;;16.67;12.52;;;;;;;;;;5054209;28;20033;-71
2022/10/28 05:42:05;;;;;;;16.88;12.18;;;;;;;;;;5072893;28;20042;-70
2022/10/28 05:44:31;;;;;;;18.40;12.70;;;;;;;;;;5072817;28;20020;-72
2022/10/28 05:46:57;;;;;;;27.10;15.18;;;;;;;;;;5072520;28;20076;-71
2022/10/28 05:49:23;;;;;;;28.58;15.55;;;;;;;;;;5072674;28;20032;-72
2022/10/28 05:51:49;;;;;;;32.33;17.83;;;;;;;;;;5072762;28;20031;-71
2022/10/28 05:54:15;;;;;;;39.38;23.45;;;;;;;;;;5072599;28;20459;-71
2022/10/28 05:56:42;;;;;;;54.15;27.85;;;;;;;;;;5072608;28;20024;-71
2022/10/28 05:59:08;;;;;;;53.92;31.00;;;;;;;;;;5072886;28;20430;-71
2022/10/28 06:01:34;;;;;;;62.25;32.55;;;;;;;;;;5072478;28;20498;-71
2022/10/28 06:04:00;;;;;;;49.60;29.40;;;;;;;;;;5072503;28;20555;-71
2022/10/28 06:06:27;;;;;;;44.20;27.67;;;;;;;;;;5072532;28;20059;-71
2022/10/28 06:08:54;;;;;;;36.92;24.48;;;;;;;;;;5072985;28;20024;-71
2022/10/28 06:11:20;;;;;;;32.85;20.40;;;;;;;;;;5072312;28;20066;-71
2022/10/28 06:13:46;;;;;;;33.05;22.77;;;;;;;;;;5072638;28;20025;-71
2022/10/28 06:16:12;;;;;;;26.58;19.50;;;;;;;;;;5072526;28;20060;-71
2022/10/28 06:18:38;;;;;;;37.00;20.35;;;;;;;;;;5072588;28;20024;-71
2022/10/28 06:21:04;;;;;;;28.75;16.20;;;;;;;;;;5072381;28;20540;-71
2022/10/28 06:23:30;;;;;;;23.45;14.85;;;;;;;;;;5072407;28;20024;-71
2022/10/28 06:26:00;;;;;;;25.73;15.45;;;;;;;;;;5072186;28;20036;-71
2022/10/28 06:28:26;;;;;;;29.13;17.27;;;;;;;;;;5072295;28;20078;-72
2022/10/28 06:30:52;;;;;;;37.50;19.30;;;;;;;;;;5072401;28;20055;-71
2022/10/28 06:33:18;;;;;;;32.33;17.00;;;;;;;;;;5072339;28;20074;-71
2022/10/28 06:35:44;;;;;;;23.58;14.45;;;;;;;;;;5072234;28;20033;-71
2022/10/28 06:38:11;;;;;;;21.25;14.35;;;;;;;;;;5072336;28;20024;-71
2022/10/28 06:40:37;;;;;;;21.58;13.77;;;;;;;;;;5071981;28;20037;-71
2022/10/28 06:43:04;;;;;;;22.23;13.57;;;;;;;;;;5072214;28;20017;-72
2022/10/28 06:45:32;;;;;;;18.95;13.43;;;;;;;;;;5073943;28;20033;-71
2022/10/28 06:47:59;;;;;;;19.17;12.88;;;;;;;;;;5075750;28;20040;-71
2022/10/28 06:50:25;;;;;;;22.77;15.25;;;;;;;;;;5076053;28;20017;-71
2022/10/28 06:52:52;;;;;;;65.25;39.20;;;;;;;;;;5076137;28;20028;-71
2022/10/28 06:55:18;;;;;;;42.78;26.63;;;;;;;;;;5075876;28;20028;-71
2022/10/28 06:57:44;;;;;;;39.50;21.90;;;;;;;;;;5057650;28;20056;-71
2022/10/28 07:00:10;;;;;;;31.42;15.82;;;;;;;;;;5075650;28;20063;-71
2022/10/28 07:02:36;;;;;;;23.63;14.70;;;;;;;;;;5075992;28;20028;-72
2022/10/28 07:05:02;;;;;;;29.95;15.55;;;;;;;;;;5075760;28;20024;-72
2022/10/28 07:07:28;;;;;;;21.90;14.15;;;;;;;;;;5075805;28;20423;-71
2022/10/28 07:09:54;;;;;;;22.52;13.85;;;;;;;;;;5075537;28;20382;-71
2022/10/28 07:12:20;;;;;;;22.80;14.13;;;;;;;;;;5075586;28;20677;-72
2022/10/28 07:14:46;;;;;;;20.23;12.98;;;;;;;;;;5075444;28;20021;-72
2022/10/28 07:17:12;;;;;;;16.23;11.48;;;;;;;;;;5075586;28;20024;-71
2022/10/28 07:19:38;;;;;;;22.08;12.60;;;;;;;;;;5075340;28;20540;-72
2022/10/28 07:22:05;;;;;;;18.27;12.50;;;;;;;;;;5075720;28;20075;-72
2022/10/28 07:24:31;;;;;;;24.83;14.77;;;;;;;;;;5075309;28;20020;-72
2022/10/28 07:26:57;;;;;;;21.98;13.68;;;;;;;;;;5075064;28;20020;-72
2022/10/28 07:29:23;;;;;;;19.10;13.57;;;;;;;;;;5075224;28;20056;-72
2022/10/28 07:31:49;;;;;;;19.15;12.40;;;;;;;;;;5075312;28;20020;-72
2022/10/28 07:34:15;;;;;;;18.15;13.05;;;;;;;;;;5075158;28;20386;-71
2022/10/28 07:36:41;;;;;;;17.83;12.15;;;;;;;;;;5075150;28;20099;-72
2022/10/28 07:39:07;;;;;;;14.75;11.35;;;;;;;;;;5074832;28;20026;-71
2022/10/28 07:41:33;;;;;;;14.32;11.10;;;;;;;;;;5075354;28;20119;-71
2022/10/28 07:43:59;;;;;;;16.73;11.40;;;;;;;;;;5075168;28;20020;-72
2022/10/28 07:46:26;;;;;;;15.65;11.23;;;;;;;;;;5074551;28;20547;-71
2022/10/28 07:48:52;;;;;;;13.35;10.32;;;;;;;;;;5075106;28;20103;-74
2022/10/28 07:51:18;;;;;;;14.93;11.82;;;;;;;;;;5074760;28;20020;-71
2022/10/28 07:53:44;;;;;;;17.90;11.05;;;;;;;;;;5074881;28;20497;-72
2022/10/28 07:56:14;;;;;;;14.93;11.25;;;;;;;;;;5056495;28;20494;-72
2022/10/28 07:58:41;;;;;;;14.30;10.27;;;;;;;;;;5074916;28;20027;-72
2022/10/28 08:01:08;;;;;;;15.50;9.63;;;;;;;;;;5074831;28;20032;-72
2022/10/28 08:03:34;;;;;;;14.98;10.65;;;;;;;;;;5074646;28;20044;-72
2022/10/28 08:06:01;;;;;;;12.82;10.50;;;;;;;;;;5074641;28;20028;-72
2022/10/28 08:08:27;;;;;;;16.50;10.25;;;;;;;;;;5074542;28;20021;-72
2022/10/28 08:10:53;;;;;;;18.45;11.23;;;;;;;;;;5074530;28;20413;-72
2022/10/28 08:13:19;;;;;;;18.27;12.02;;;;;;;;;;5074175;28;20023;-71
2022/10/28 08:15:51;;;;;;;20.27;11.43;;;;;;;;;;5074192;28;20028;-72
2022/10/28 08:18:17;;;;;;;21.67;11.00;;;;;;;;;;5074467;28;20032;-72
2022/10/28 08:20:43;;;;;;;23.35;11.70;;;;;;;;;;5074221;28;20032;-72
2022/10/28 08:23:09;;;;;;;21.63;8.80;;;;;;;;;;5074162;28;20095;-72
2022/10/28 08:25:35;;;;;;;14.15;9.27;;;;;;;;;;5074260;28;20089;-72
2022/10/28 08:28:01;;;;;;;21.48;10.00;;;;;;;;;;5074102;28;20078;-72
2022/10/28 08:30:27;;;;;;;16.25;8.52;;;;;;;;;;5074034;28;20359;-72
2022/10/28 08:32:54;;;;;;;16.52;9.00;;;;;;;;;;5074035;28;20092;-72
2022/10/28 08:35:20;;;;;;;13.88;9.55;;;;;;;;;;5073919;28;20456;-72
2022/10/28 08:37:52;;;;;;;17.80;8.73;;;;;;;;;;5074001;28;20016;-71
2022/10/28 08:40:22;;;;;;;15.18;9.65;;;;;;;;;;5074327;28;20028;-72
2022/10/28 08:42:49;;;;;;;19.92;9.38;;;;;;;;;;5073552;28;20028;-72
2022/10/28 08:45:18;;;;;;;25.25;12.52;;;;;;;;;;5073813;28;20494;-72
2022/10/28 08:47:44;;;;;;;15.40;8.88;;;;;;;;;;5073393;28;20079;-72
2022/10/28 08:50:18;;;;;;;11.43;8.15;;;;;;;;;;5073525;28;20063;-74
2022/10/28 08:52:49;;;;;;;13.82;8.65;;;;;;;;;;5073855;28;20103;-72
2022/10/28 08:55:15;;;;;;;;;;;;;;;;;;5073935;28;20025;-72
2022/10/28 08:57:53;;;;;;;18.42;10.20;;;;;;;;;;5073471;28;19927;-72
2022/10/28 09:00:22;;;;;;;14.50;8.18;;;;;;;;;;5073505;28;20054;-75
2022/10/28 09:03:14;;;;;;;15.70;8.65;;;;;;;;;;5073287;28;20020;-73
2022/10/28 09:05:41;;;;;;;10.63;8.90;;;;;;;;;;5073387;28;20025;-72
2022/10/28 09:08:27;;;;;;;16.05;7.85;;;;;;;;;;5072764;28;20016;-73
2022/10/28 09:10:56;;;;;;;15.07;8.38;;;;;;;;;;5073261;28;20044;-72
2022/10/28 09:13:25;;;;;;;24.77;10.50;;;;;;;;;;5073032;28;20088;-75
2022/10/28 09:15:51;;;;;;;14.52;8.65;;;;;;;;;;5073419;28;20029;-72
2022/10/28 09:18:18;;;;;;;24.17;9.15;;;;;;;;;;5072989;28;20056;-74
2022/10/28 09:20:59;;;;;;;23.58;10.80;;;;;;;;;;5072872;28;20040;-73
2022/10/28 09:23:28;;;;;;;26.98;10.88;;;;;;;;;;5073049;28;20028;-72
2022/10/28 09:26:06;;;;;;;25.27;11.20;;;;;;;;;;5073020;28;20100;-73
2022/10/28 09:28:32;;;;;;;26.48;13.48;;;;;;;;;;5072873;28;20078;-75
2022/10/28 09:31:11;;;;;;;16.60;10.32;;;;;;;;;;5072994;28;20123;-72
2022/10/28 09:34:00;;;;;;;16.13;10.05;;;;;;;;;;5073125;28;20028;-75
2022/10/28 09:36:39;;;;;;;17.00;10.00;;;;;;;;;;4972119;28;20043;-72
2022/10/28 09:39:06;;;;;;;14.23;8.93;;;;;;;;;;4972022;28;20563;-72
2022/10/28 09:41:33;;;;;;;15.27;8.77;;;;;;;;;;4972017;28;20047;-73
2022/10/28 09:44:18;;;;;;;22.58;10.45;;;;;;;;;;4972016;28;20038;-72
2022/10/28 09:46:45;;;;;;;13.82;9.38;;;;;;;;;;4971635;28;20441;-73
2022/10/28 09:49:15;;;;;;;13.45;8.95;;;;;;;;;;4971852;28;20482;-72
2022/10/28 09:51:45;;;;;;;13.95;9.73;;;;;;;;;;4972050;28;20541;-72
2022/10/28 09:54:12;;;;;;;21.10;10.13;;;;;;;;;;4971841;28;20070;-72
2022/10/28 09:56:39;;;;;;;9.52;7.50;;;;;;;;;;4971775;28;20022;-72
2022/10/28 09:59:06;;;;;;;14.38;8.73;;;;;;;;;;4971828;28;20030;-72
2022/10/28 10:01:36;;;;;;;12.38;7.65;;;;;;;;;;4971613;28;20070;-72
2022/10/28 10:04:02;;;;;;;13.52;6.15;;;;;;;;;;4971890;28;20038;-72
2022/10/28 10:06:31;;;;;;;11.07;6.68;;;;;;;;;;4971567;28;20038;-73
2022/10/28 10:08:58;;;;;;;9.65;6.75;;;;;;;;;;4971504;28;20110;-72
2022/10/28 10:11:30;;;;;;;11.05;6.25;;;;;;;;;;4971719;28;20038;-72
2022/10/28 10:13:58;;;;;;;15.02;6.70;;;;;;;;;;5044527;28;20451;-72
2022/10/28 10:16:41;;;;;;;8.50;6.85;;;;;;;;;;5072496;28;20025;-73
2022/10/28 10:19:09;;;;;;;10.55;6.25;;;;;;;;;;5074171;28;20112;-73
2022/10/28 10:21:50;;;;;;;13.75;6.75;;;;;;;;;;5076450;28;20078;-73
2022/10/28 10:24:23;;;;;;;9.20;6.13;;;;;;;;;;5076903;28;20028;-73
2022/10/28 10:26:49;;;;;;;8.98;6.07;;;;;;;;;;5076457;28;20027;-73
2022/10/28 10:29:15;;;;;;;9.40;6.40;;;;;;;;;;5076333;28;20020;-73
2022/10/28 10:31:41;;;;;;;8.73;5.53;;;;;;;;;;5076670;28;20035;-72
2022/10/28 10:34:18;;;;;;;10.38;6.63;;;;;;;;;;5076323;28;20092;-73
2022/10/28 10:36:48;;;;;;;9.65;6.72;;;;;;;;;;5076234;28;20029;-73
2022/10/28 10:39:21;;;;;;;13.27;6.93;;;;;;;;;;5075617;28;20032;-73
2022/10/28 10:41:47;;;;;;;11.60;6.47;;;;;;;;;;5076009;28;20036;-73
2022/10/28 10:44:22;;;;;;;6.85;5.45;;;;;;;;;;5075650;28;20438;-72
2022/10/28 10:47:01;;;;;;;9.07;6.22;;;;;;;;;;5075916;28;20507;-73
2022/10/28 10:49:28;;;;;;;10.05;6.30;;;;;;;;;;5075621;28;20028;-75
2022/10/28 10:51:55;;;;;;;7.63;5.25;;;;;;;;;;5075862;28;20025;-73
2022/10/28 10:54:22;;;;;;;9.95;5.05;;;;;;;;;;5075656;28;20024;-74
2022/10/28 10:56:48;;;;;;;10.38;6.10;;;;;;;;;;5075823;28;20021;-73
2022/10/28 10:59:36;;;;;;;11.32;5.60;;;;;;;;;;5075765;28;20031;-73
2022/10/28 11:02:03;;;;;;;7.78;5.00;;;;;;;;;;5075725;28;20090;-74
2022/10/28 11:04:29;;;;;;;9.25;7.05;;;;;;;;;;5075346;28;20035;-73
2022/10/28 11:06:56;;;;;;;9.57;5.30;;;;;;;;;;5075684;28;20031;-73
2022/10/28 11:09:28;;;;;;;10.60;7.22;;;;;;;;;;5075512;28;20063;-73
2022/10/28 11:11:55;;;;;;;11.57;6.70;;;;;;;;;;5075590;28;20024;-73
2022/10/28 11:14:26;;;;;;;20.70;12.48;;;;;;;;;;5075150;28;20060;-73
2022/10/28 11:16:54;;;;;;;7.40;4.70;;;;;;;;;;5075345;28;20028;-73
2022/10/28 11:19:21;;;;;;;8.50;4.18;;;;;;;;;;5075146;28;20112;-73
2022/10/28 11:22:04;;;;;;;11.38;7.07;;;;;;;;;;5074932;28;20028;-74
2022/10/28 11:24:33;;;;;;;8.15;5.82;;;;;;;;;;5075354;28;20470;-73
2022/10/28 11:27:04;;;;;;;8.25;4.32;;;;;;;;;;5074812;28;20025;-73
2022/10/28 11:29:30;;;;;;;5.72;4.93;;;;;;;;;;5074909;28;20518;-73
2022/10/28 11:31:59;;;;;;;6.57;4.70;;;;;;;;;;5074242;28;20421;-74
2022/10/28 11:34:28;;;;;;;7.85;6.22;;;;;;;;;;5075106;28;20020;-74
2022/10/28 11:36:54;;;;;;;7.53;5.03;;;;;;;;;;5074853;28;20099;-73
2022/10/28 11:39:25;;;;;;;8.68;5.07;;;;;;;;;;5074744;28;20104;-73
2022/10/28 11:42:00;;;;;;;7.32;4.53;;;;;;;;;;5074683;28;20389;-74
2022/10/28 11:44:33;;;;;;;6.13;5.18;;;;;;;;;;5074751;28;20078;-73
2022/10/28 11:47:08;;;;;;;20.20;8.15;;;;;;;;;;5074760;28;20053;-74
2022/10/28 11:49:46;;;;;;;14.02;6.15;;;;;;;;;;5074408;28;20017;-73
2022/10/28 11:52:30;;;;;;;7.95;5.47;;;;;;;;;;5074875;28;20028;-73
2022/10/28 11:55:06;;;;;;;7.63;5.90;;;;;;;;;;5074685;28;20060;-73
2022/10/28 11:57:36;;;;;;;7.35;4.78;;;;;;;;;;5074694;28;20429;-73
2022/10/28 12:00:24;;;;;;;9.98;4.97;;;;;;;;;;5074411;28;20025;-74
2022/10/28 12:02:50;;;;;;;6.20;4.60;;;;;;;;;;5074470;28;20037;-73
2022/10/28 12:05:25;;;;;;;8.68;5.07;;;;;;;;;;5074425;28;20021;-74
2022/10/28 12:07:58;;;;;;;9.55;6.05;;;;;;;;;;5074611;28;20029;-74
2022/10/28 12:10:33;;;;;;;6.03;4.90;;;;;;;;;;5074330;28;20029;-74
2022/10/28 12:12:59;;;;;;;5.97;4.93;;;;;;;;;;5074365;28;20479;-74
2022/10/28 12:15:38;;;;;;;13.13;5.35;;;;;;;;;;5074017;28;20032;-73
2022/10/28 12:18:14;;;;;;;7.55;5.47;;;;;;;;;;5074220;28;20025;-74
2022/10/28 12:20:52;;;;;;;7.90;5.43;;;;;;;;;;5074384;28;20435;-73
2022/10/28 12:23:20;;;;;;;8.30;5.72;;;;;;;;;;5074234;28;20044;-73
2022/10/28 12:25:49;;;;;;;8.82;5.50;;;;;;;;;;5074264;28;20352;-73
2022/10/28 12:28:21;;;;;;;9.73;6.03;;;;;;;;;;5073794;28;20086;-73
2022/10/28 12:30:48;;;;;;;11.82;6.00;;;;;;;;;;5074254;28;20511;-73
2022/10/28 12:33:16;;;;;;;7.78;5.25;;;;;;;;;;5074066;28;20512;-73
2022/10/28 12:35:48;;;;;;;9.38;7.47;;;;;;;;;;5073976;28;20024;-73
2022/10/28 12:38:14;;;;;;;11.07;6.07;;;;;;;;;;5074359;28;20468;-74
2022/10/28 12:40:45;;;;;;;11.20;6.22;;;;;;;;;;5073757;28;20116;-73
2022/10/28 12:43:11;;;;;;;7.70;5.43;;;;;;;;;;5072841;28;20024;-73
2022/10/28 12:45:39;;;;;;;9.10;5.82;;;;;;;;;;5073927;28;20031;-73
2022/10/28 12:48:24;;;;;;;9.93;6.30;;;;;;;;;;5073473;28;20044;-73
2022/10/28 12:50:50;;;;;;;8.18;5.30;;;;;;;;;;5073641;28;20066;-73
2022/10/28 12:53:24;;;;;;;9.85;6.05;;;;;;;;;;5073640;28;20025;-73
2022/10/28 12:55:55;;;;;;;9.43;5.65;;;;;;;;;;5073625;28;20059;-73
2022/10/28 12:58:30;;;;;;;14.18;7.53;;;;;;;;;;5073581;28;20017;-74
2022/10/28 13:01:06;;;;;;;8.27;6.60;;;;;;;;;;5074008;28;20356;-73
2022/10/28 13:03:33;;;;;;;10.93;7.05;;;;;;;;;;5060224;28;20485;-73
2022/10/28 13:06:17;;;;;;;8.85;5.88;;;;;;;;;;5073794;28;20043;-73
2022/10/28 13:09:02;;;;;;;8.00;5.90;;;;;;;;;;5060873;28;20063;-73
2022/10/28 13:11:46;;;;;;;11.93;8.18;;;;;;;;;;5073317;28;20021;-73
2022/10/28 13:14:31;;;;;;;11.35;8.05;;;;;;;;;;5073193;28;20024;-73
2022/10/28 13:17:15;;;;;;;8.82;5.28;;;;;;;;;;5073121;28;20033;-73
2022/10/28 13:20:01;;;;;;;13.30;8.30;;;;;;;;;;5073120;28;20033;-73
2022/10/28 13:22:46;;;;;;;12.98;8.27;;;;;;;;;;4991549;28;20044;-73
2022/10/28 13:25:21;;;;;;;7.30;5.32;;;;;;;;;;4991634;28;20027;-73
2022/10/28 13:27:47;;;;;;;7.82;5.60;;;;;;;;;;4991713;28;20039;-74
2022/10/28 13:30:16;;;;;;;12.45;6.70;;;;;;;;;;4991452;28;20596;-74
2022/10/28 13:32:42;;;;;;;14.52;7.50;;;;;;;;;;4991558;28;20105;-73
2022/10/28 13:35:15;;;;;;;10.75;7.07;;;;;;;;;;4991652;28;20034;-73
2022/10/28 13:37:41;;;;;;;12.35;7.95;;;;;;;;;;4991317;28;20026;-73
2022/10/28 13:40:20;;;;;;;9.85;5.95;;;;;;;;;;4991453;28;20045;-73
2022/10/28 13:42:47;;;;;;;10.13;6.18;;;;;;;;;;4991403;28;20513;-72
2022/10/28 13:45:35;;;;;;;12.40;7.10;;;;;;;;;;4991465;28;20037;-74
2022/10/28 13:48:20;;;;;;;12.95;7.70;;;;;;;;;;4990952;28;20429;-72
2022/10/28 13:50:47;;;;;;;13.60;12.20;;;;;;;;;;4991381;28;20061;-72
2022/10/28 13:53:28;;;;;;;33.10;9.95;;;;;;;;;;4990954;28;20386;-73
2022/10/28 13:55:57;;;;;;;16.83;8.50;;;;;;;;;;4991521;28;20500;-74
2022/10/28 13:58:25;;;;;;;18.08;9.85;;;;;;;;;;4993361;28;20030;-74
2022/10/28 14:00:51;;;;;;;15.18;8.45;;;;;;;;;;5072431;28;20068;-72
2022/10/28 14:03:23;;;;;;;16.10;8.65;;;;;;;;;;5072612;28;20021;-72
2022/10/28 14:05:50;;;;;;;12.60;8.20;;;;;;;;;;5072399;28;20054;-72
2022/10/28 14:08:32;;;;;;;14.60;9.32;;;;;;;;;;5072558;28;20413;-72
2022/10/28 14:11:00;;;;;;;15.70;9.05;;;;;;;;;;5072709;28;20040;-72
2022/10/28 14:13:27;;;;;;;14.45;8.75;;;;;;;;;;5072263;28;20027;-72
2022/10/28 14:16:11;;;;;;;23.38;10.93;;;;;;;;;;5072278;28;20475;-72
2022/10/28 14:18:38;;;;;;;13.75;8.75;;;;;;;;;;5072421;28;20382;-72
2022/10/28 14:21:04;;;;;;;15.15;8.80;;;;;;;;;;5072468;28;20124;-73
2022/10/28 14:23:35;;;;;;;17.05;9.38;;;;;;;;;;5072411;28;20016;-72
2022/10/28 14:26:03;;;;;;;12.48;8.13;;;;;;;;;;5072418;28;20029;-72
2022/10/28 14:28:29;;;;;;;15.05;8.98;;;;;;;;;;5072429;28;20021;-72
2022/10/28 14:31:10;;;;;;;13.05;8.13;;;;;;;;;;5072277;28;20095;-72
2022/10/28 14:33:36;;;;;;;;;;;;;;;;;;5072498;28;20025;-73
2022/10/28 14:36:08;;;;;;;10.82;7.88;;;;;;;;;;5072253;28;20289;-73
2022/10/28 14:38:52;;;;;;;16.98;9.82;;;;;;;;;;5054289;28;20024;-72
2022/10/28 14:41:37;;;;;;;20.45;12.52;;;;;;;;;;5072040;28;20028;-72